sensor_id;sensor_type;location;lat;lon;timestamp;temperature;humidity
74901;DHT22;63461;51.416;6.758;2023-05-13T00:01:26;14.00;99.90
74901;DHT22;63461;51.416;6.758;2023-05-13T00:03:52;14.00;99.90
74901;DHT22;63461;51.416;6.758;2023-05-13T00:06:18;13.90;99.90
74901;DHT22;63461;51.416;6.758;2023-05-13T00:08:44;13.90;99.90
74901;DHT22;63461;51.416;6.758;2023-05-13T00:11:09;13.90;99.90
74901;DHT22;63461;51.416;6.758;2023-05-13T00:13:35;13.90;99.90
74901;DHT22;63461;51.416;6.758;2023-05-13T00:16:02;13.90;99.90
74901;DHT22;63461;51.416;6.758;2023-05-13T00:18:28;13.80;99.90
74901;DHT22;63461;51.416;6.758;2023-05-13T00:20:54;13.80;99.90
74901;DHT22;63461;51.416;6.758;2023-05-13T00:23:21;13.90;99.90
74901;DHT22;63461;51.416;6.758;2023-05-13T00:25:47;13.80;99.90
74901;DHT22;63461;51.416;6.758;2023-05-13T00:28:12;13.90;99.90
74901;DHT22;63461;51.416;6.758;2023-05-13T00:30:41;13.80;99.90
74901;DHT22;63461;51.416;6.758;2023-05-13T00:33:08;13.80;99.90
74901;DHT22;63461;51.416;6.758;2023-05-13T00:35:34;13.80;99.90
74901;DHT22;63461;51.416;6.758;2023-05-13T00:38:00;13.80;99.90
74901;DHT22;63461;51.416;6.758;2023-05-13T00:40:26;13.80;99.90
74901;DHT22;63461;51.416;6.758;2023-05-13T00:42:53;13.80;99.90
74901;DHT22;63461;51.416;6.758;2023-05-13T00:45:19;13.80;99.90
74901;DHT22;63461;51.416;6.758;2023-05-13T00:47:45;13.80;99.90
74901;DHT22;63461;51.416;6.758;2023-05-13T00:50:13;13.80;99.90
74901;DHT22;63461;51.416;6.758;2023-05-13T00:52:40;13.80;99.90
74901;DHT22;63461;51.416;6.758;2023-05-13T00:55:08;13.80;99.90
74901;DHT22;63461;51.416;6.758;2023-05-13T00:57:34;13.80;99.90
74901;DHT22;63461;51.416;6.758;2023-05-13T01:00:00;13.70;99.90
74901;DHT22;63461;51.416;6.758;2023-05-13T01:11:03;13.80;99.90
74901;DHT22;63461;51.416;6.758;2023-05-13T01:13:35;13.80;99.90
74901;DHT22;63461;51.416;6.758;2023-05-13T01:16:32;13.80;99.90
74901;DHT22;63461;51.416;6.758;2023-05-13T01:19:06;13.80;99.90
74901;DHT22;63461;51.416;6.758;2023-05-13T01:21:36;13.70;99.90
74901;DHT22;63461;51.416;6.758;2023-05-13T01:24:03;13.80;99.90
74901;DHT22;63461;51.416;6.758;2023-05-13T01:26:29;13.70;99.90
74901;DHT22;63461;51.416;6.758;2023-05-13T01:28:55;13.70;99.90
74901;DHT22;63461;51.416;6.758;2023-05-13T01:31:22;13.70;99.90
74901;DHT22;63461;51.416;6.758;2023-05-13T01:33:49;13.60;99.90
74901;DHT22;63461;51.416;6.758;2023-05-13T01:36:15;13.60;99.90
74901;DHT22;63461;51.416;6.758;2023-05-13T01:38:42;13.60;99.90
74901;DHT22;63461;51.416;6.758;2023-05-13T01:41:08;13.60;99.90
74901;DHT22;63461;51.416;6.758;2023-05-13T01:43:35;13.50;99.90
74901;DHT22;63461;51.416;6.758;2023-05-13T01:46:01;13.50;99.90
74901;DHT22;63461;51.416;6.758;2023-05-13T01:48:26;13.50;99.90
74901;DHT22;63461;51.416;6.758;2023-05-13T01:50:53;13.50;99.90
74901;DHT22;63461;51.416;6.758;2023-05-13T01:53:19;13.40;99.90
74901;DHT22;63461;51.416;6.758;2023-05-13T01:55:46;13.50;99.90
74901;DHT22;63461;51.416;6.758;2023-05-13T01:58:12;13.40;99.90
74901;DHT22;63461;51.416;6.758;2023-05-13T02:00:39;13.40;99.90
74901;DHT22;63461;51.416;6.758;2023-05-13T02:03:05;13.40;99.90
74901;DHT22;63461;51.416;6.758;2023-05-13T02:05:31;13.40;99.90
74901;DHT22;63461;51.416;6.758;2023-05-13T02:08:00;13.30;99.90
74901;DHT22;63461;51.416;6.758;2023-05-13T02:10:26;13.30;99.90
74901;DHT22;63461;51.416;6.758;2023-05-13T02:12:52;13.20;99.90
74901;DHT22;63461;51.416;6.758;2023-05-13T02:15:17;13.30;99.90
74901;DHT22;63461;51.416;6.758;2023-05-13T02:17:43;13.20;99.90
74901;DHT22;63461;51.416;6.758;2023-05-13T02:20:09;13.30;99.90
74901;DHT22;63461;51.416;6.758;2023-05-13T02:22:35;13.20;99.90
74901;DHT22;63461;51.416;6.758;2023-05-13T02:25:03;13.30;99.90
74901;DHT22;63461;51.416;6.758;2023-05-13T02:27:29;13.20;99.90
74901;DHT22;63461;51.416;6.758;2023-05-13T02:29:54;13.30;99.90
74901;DHT22;63461;51.416;6.758;2023-05-13T02:32:20;13.20;99.90
74901;DHT22;63461;51.416;6.758;2023-05-13T02:34:46;13.20;99.90
74901;DHT22;63461;51.416;6.758;2023-05-13T02:37:12;13.20;99.90
74901;DHT22;63461;51.416;6.758;2023-05-13T02:39:46;13.20;99.90
74901;DHT22;63461;51.416;6.758;2023-05-13T02:42:12;13.10;99.90
74901;DHT22;63461;51.416;6.758;2023-05-13T02:44:38;13.10;99.90
74901;DHT22;63461;51.416;6.758;2023-05-13T02:47:05;13.10;99.90
74901;DHT22;63461;51.416;6.758;2023-05-13T02:49:30;13.10;99.90
74901;DHT22;63461;51.416;6.758;2023-05-13T02:51:56;13.00;99.90
74901;DHT22;63461;51.416;6.758;2023-05-13T02:54:29;13.00;99.90
74901;DHT22;63461;51.416;6.758;2023-05-13T02:56:54;13.00;99.90
74901;DHT22;63461;51.416;6.758;2023-05-13T02:59:20;13.00;99.90
74901;DHT22;63461;51.416;6.758;2023-05-13T03:01:46;13.00;99.90
74901;DHT22;63461;51.416;6.758;2023-05-13T03:04:12;13.00;99.90
74901;DHT22;63461;51.416;6.758;2023-05-13T03:06:37;12.90;99.90
74901;DHT22;63461;51.416;6.758;2023-05-13T03:09:03;12.90;99.90
74901;DHT22;63461;51.416;6.758;2023-05-13T03:11:29;12.90;99.90
74901;DHT22;63461;51.416;6.758;2023-05-13T03:13:55;12.80;99.90
74901;DHT22;63461;51.416;6.758;2023-05-13T03:16:21;12.90;99.90
74901;DHT22;63461;51.416;6.758;2023-05-13T03:18:46;12.80;99.90
74901;DHT22;63461;51.416;6.758;2023-05-13T03:21:12;12.70;99.90
74901;DHT22;63461;51.416;6.758;2023-05-13T03:23:38;12.80;99.90
74901;DHT22;63461;51.416;6.758;2023-05-13T03:26:04;12.80;99.90
74901;DHT22;63461;51.416;6.758;2023-05-13T03:28:31;12.70;99.90
74901;DHT22;63461;51.416;6.758;2023-05-13T03:30:57;12.70;99.90
74901;DHT22;63461;51.416;6.758;2023-05-13T03:33:23;12.70;99.90
74901;DHT22;63461;51.416;6.758;2023-05-13T03:35:49;12.70;99.90
74901;DHT22;63461;51.416;6.758;2023-05-13T03:38:19;12.70;99.90
74901;DHT22;63461;51.416;6.758;2023-05-13T03:40:48;12.70;99.90
74901;DHT22;63461;51.416;6.758;2023-05-13T03:43:13;12.70;99.90
74901;DHT22;63461;51.416;6.758;2023-05-13T03:45:43;12.60;99.90
74901;DHT22;63461;51.416;6.758;2023-05-13T03:48:14;12.60;99.90
74901;DHT22;63461;51.416;6.758;2023-05-13T03:50:40;12.70;99.90
74901;DHT22;63461;51.416;6.758;2023-05-13T03:53:06;12.60;99.90
74901;DHT22;63461;51.416;6.758;2023-05-13T03:55:34;12.60;99.90
74901;DHT22;63461;51.416;6.758;2023-05-13T03:58:10;12.60;99.90
74901;DHT22;63461;51.416;6.758;2023-05-13T04:00:36;12.60;99.90
74901;DHT22;63461;51.416;6.758;2023-05-13T04:03:02;12.60;99.90
74901;DHT22;63461;51.416;6.758;2023-05-13T04:05:28;12.60;99.90
74901;DHT22;63461;51.416;6.758;2023-05-13T04:07:53;12.60;99.90
74901;DHT22;63461;51.416;6.758;2023-05-13T04:10:19;12.60;99.90
74901;DHT22;63461;51.416;6.758;2023-05-13T04:12:45;12.60;99.90
74901;DHT22;63461;51.416;6.758;2023-05-13T04:15:11;12.60;99.90
74901;DHT22;63461;51.416;6.758;2023-05-13T04:17:36;12.70;99.90
74901;DHT22;63461;51.416;6.758;2023-05-13T04:20:02;12.70;99.90
74901;DHT22;63461;51.416;6.758;2023-05-13T04:22:29;12.70;99.90
74901;DHT22;63461;51.416;6.758;2023-05-13T04:24:55;12.60;99.90
74901;DHT22;63461;51.416;6.758;2023-05-13T04:27:22;12.70;99.90
74901;DHT22;63461;51.416;6.758;2023-05-13T04:29:50;12.60;99.90
74901;DHT22;63461;51.416;6.758;2023-05-13T04:32:16;12.60;99.90
74901;DHT22;63461;51.416;6.758;2023-05-13T04:34:47;12.60;99.90
74901;DHT22;63461;51.416;6.758;2023-05-13T04:37:14;12.60;99.90
74901;DHT22;63461;51.416;6.758;2023-05-13T04:39:43;12.70;99.90
74901;DHT22;63461;51.416;6.758;2023-05-13T04:42:10;12.70;99.90
74901;DHT22;63461;51.416;6.758;2023-05-13T04:44:36;12.70;99.90
74901;DHT22;63461;51.416;6.758;2023-05-13T04:47:02;12.70;99.90
74901;DHT22;63461;51.416;6.758;2023-05-13T04:49:28;12.70;99.90
74901;DHT22;63461;51.416;6.758;2023-05-13T04:51:54;12.80;99.90
74901;DHT22;63461;51.416;6.758;2023-05-13T04:54:20;12.70;99.90
74901;DHT22;63461;51.416;6.758;2023-05-13T04:56:46;12.70;99.90
74901;DHT22;63461;51.416;6.758;2023-05-13T04:59:16;12.80;99.90
74901;DHT22;63461;51.416;6.758;2023-05-13T05:01:42;12.80;99.90
74901;DHT22;63461;51.416;6.758;2023-05-13T05:04:07;12.80;99.90
74901;DHT22;63461;51.416;6.758;2023-05-13T05:06:35;12.90;99.90
74901;DHT22;63461;51.416;6.758;2023-05-13T05:09:00;12.90;99.90
74901;DHT22;63461;51.416;6.758;2023-05-13T05:11:26;12.80;99.90
74901;DHT22;63461;51.416;6.758;2023-05-13T05:13:52;12.80;99.90
74901;DHT22;63461;51.416;6.758;2023-05-13T05:16:18;12.90;99.90
74901;DHT22;63461;51.416;6.758;2023-05-13T05:18:44;13.00;99.90
74901;DHT22;63461;51.416;6.758;2023-05-13T05:21:10;13.00;99.90
74901;DHT22;63461;51.416;6.758;2023-05-13T05:23:36;13.00;99.90
74901;DHT22;63461;51.416;6.758;2023-05-13T05:26:02;13.00;99.90
74901;DHT22;63461;51.416;6.758;2023-05-13T05:28:29;13.10;99.90
74901;DHT22;63461;51.416;6.758;2023-05-13T05:30:56;13.10;99.90
74901;DHT22;63461;51.416;6.758;2023-05-13T05:33:25;13.10;99.90
74901;DHT22;63461;51.416;6.758;2023-05-13T05:35:51;13.20;99.90
74901;DHT22;63461;51.416;6.758;2023-05-13T05:38:19;13.20;99.90
74901;DHT22;63461;51.416;6.758;2023-05-13T05:40:45;13.20;99.90
74901;DHT22;63461;51.416;6.758;2023-05-13T05:43:11;13.20;99.90
74901;DHT22;63461;51.416;6.758;2023-05-13T05:45:38;13.20;99.90
74901;DHT22;63461;51.416;6.758;2023-05-13T05:48:06;13.30;99.90
74901;DHT22;63461;51.416;6.758;2023-05-13T05:50:32;13.30;99.90
74901;DHT22;63461;51.416;6.758;2023-05-13T05:53:01;13.30;99.90
74901;DHT22;63461;51.416;6.758;2023-05-13T05:55:27;13.30;99.90
74901;DHT22;63461;51.416;6.758;2023-05-13T05:57:54;13.40;99.90
74901;DHT22;63461;51.416;6.758;2023-05-13T06:00:20;13.40;99.90
74901;DHT22;63461;51.416;6.758;2023-05-13T06:02:46;13.40;99.90
74901;DHT22;63461;51.416;6.758;2023-05-13T06:05:14;13.40;99.90
74901;DHT22;63461;51.416;6.758;2023-05-13T06:07:40;13.40;99.90
74901;DHT22;63461;51.416;6.758;2023-05-13T06:10:07;13.60;99.90
74901;DHT22;63461;51.416;6.758;2023-05-13T06:12:33;13.60;99.90
74901;DHT22;63461;51.416;6.758;2023-05-13T06:15:00;13.60;99.90
74901;DHT22;63461;51.416;6.758;2023-05-13T06:17:26;13.70;99.90
74901;DHT22;63461;51.416;6.758;2023-05-13T06:19:51;13.70;99.90
74901;DHT22;63461;51.416;6.758;2023-05-13T06:22:17;13.70;99.90
74901;DHT22;63461;51.416;6.758;2023-05-13T06:24:43;13.80;99.90
74901;DHT22;63461;51.416;6.758;2023-05-13T06:27:10;13.80;99.90
74901;DHT22;63461;51.416;6.758;2023-05-13T06:29:36;13.90;99.90
74901;DHT22;63461;51.416;6.758;2023-05-13T06:32:02;13.90;99.90
74901;DHT22;63461;51.416;6.758;2023-05-13T06:34:28;14.00;99.90
74901;DHT22;63461;51.416;6.758;2023-05-13T06:36:54;14.00;99.90
74901;DHT22;63461;51.416;6.758;2023-05-13T06:39:20;14.10;99.90
74901;DHT22;63461;51.416;6.758;2023-05-13T06:41:46;14.10;99.90
74901;DHT22;63461;51.416;6.758;2023-05-13T06:44:14;14.20;99.90
74901;DHT22;63461;51.416;6.758;2023-05-13T06:46:44;14.20;99.90
74901;DHT22;63461;51.416;6.758;2023-05-13T06:49:10;14.30;99.90
74901;DHT22;63461;51.416;6.758;2023-05-13T06:51:36;14.30;99.90
74901;DHT22;63461;51.416;6.758;2023-05-13T06:54:02;14.40;99.90
74901;DHT22;63461;51.416;6.758;2023-05-13T06:56:29;14.40;99.90
74901;DHT22;63461;51.416;6.758;2023-05-13T06:58:55;14.50;99.90
74901;DHT22;63461;51.416;6.758;2023-05-13T07:01:20;14.50;99.90
74901;DHT22;63461;51.416;6.758;2023-05-13T07:03:47;14.60;99.90
74901;DHT22;63461;51.416;6.758;2023-05-13T07:06:12;14.60;99.90
74901;DHT22;63461;51.416;6.758;2023-05-13T07:08:38;14.70;99.90
74901;DHT22;63461;51.416;6.758;2023-05-13T07:11:05;14.70;99.90
74901;DHT22;63461;51.416;6.758;2023-05-13T07:13:31;14.70;99.90
74901;DHT22;63461;51.416;6.758;2023-05-13T07:16:00;14.80;99.90
74901;DHT22;63461;51.416;6.758;2023-05-13T07:18:27;14.80;99.90
74901;DHT22;63461;51.416;6.758;2023-05-13T07:20:54;14.90;99.90
74901;DHT22;63461;51.416;6.758;2023-05-13T07:23:24;14.90;99.90
74901;DHT22;63461;51.416;6.758;2023-05-13T07:25:50;14.90;99.90
74901;DHT22;63461;51.416;6.758;2023-05-13T07:28:17;15.00;99.90
74901;DHT22;63461;51.416;6.758;2023-05-13T07:30:44;15.00;99.90
74901;DHT22;63461;51.416;6.758;2023-05-13T07:33:10;15.10;99.90
74901;DHT22;63461;51.416;6.758;2023-05-13T07:35:35;15.10;99.90
74901;DHT22;63461;51.416;6.758;2023-05-13T07:38:02;15.30;99.90
74901;DHT22;63461;51.416;6.758;2023-05-13T07:40:28;15.20;99.90
74901;DHT22;63461;51.416;6.758;2023-05-13T07:42:54;15.50;99.90
74901;DHT22;63461;51.416;6.758;2023-05-13T07:45:20;15.50;99.90
74901;DHT22;63461;51.416;6.758;2023-05-13T07:47:46;15.50;99.90
74901;DHT22;63461;51.416;6.758;2023-05-13T07:50:12;15.60;99.90
74901;DHT22;63461;51.416;6.758;2023-05-13T07:52:38;15.60;99.90
74901;DHT22;63461;51.416;6.758;2023-05-13T07:55:04;15.50;99.90
74901;DHT22;63461;51.416;6.758;2023-05-13T07:57:30;15.50;99.90
74901;DHT22;63461;51.416;6.758;2023-05-13T07:59:55;15.60;99.90
74901;DHT22;63461;51.416;6.758;2023-05-13T08:02:21;15.80;99.90
74901;DHT22;63461;51.416;6.758;2023-05-13T08:04:49;15.70;99.90
74901;DHT22;63461;51.416;6.758;2023-05-13T08:07:14;15.80;99.90
74901;DHT22;63461;51.416;6.758;2023-05-13T08:09:40;15.80;99.90
74901;DHT22;63461;51.416;6.758;2023-05-13T08:12:06;15.80;99.90
74901;DHT22;63461;51.416;6.758;2023-05-13T08:14:32;16.00;99.90
74901;DHT22;63461;51.416;6.758;2023-05-13T08:16:58;16.00;99.90
74901;DHT22;63461;51.416;6.758;2023-05-13T08:19:23;16.10;99.90
74901;DHT22;63461;51.416;6.758;2023-05-13T08:21:49;16.20;99.90
74901;DHT22;63461;51.416;6.758;2023-05-13T08:24:15;16.40;99.90
74901;DHT22;63461;51.416;6.758;2023-05-13T08:26:41;16.40;99.90
74901;DHT22;63461;51.416;6.758;2023-05-13T08:29:07;16.50;99.90
74901;DHT22;63461;51.416;6.758;2023-05-13T08:31:37;16.60;99.90
74901;DHT22;63461;51.416;6.758;2023-05-13T08:34:03;16.50;99.90
74901;DHT22;63461;51.416;6.758;2023-05-13T08:36:29;16.60;99.90
74901;DHT22;63461;51.416;6.758;2023-05-13T08:38:54;16.60;99.90
74901;DHT22;63461;51.416;6.758;2023-05-13T08:41:20;16.60;99.90
74901;DHT22;63461;51.416;6.758;2023-05-13T08:43:48;16.70;99.90
74901;DHT22;63461;51.416;6.758;2023-05-13T08:46:16;16.70;99.90
74901;DHT22;63461;51.416;6.758;2023-05-13T08:48:43;16.70;99.90
74901;DHT22;63461;51.416;6.758;2023-05-13T08:51:09;16.80;99.90
74901;DHT22;63461;51.416;6.758;2023-05-13T08:53:37;16.80;99.90
74901;DHT22;63461;51.416;6.758;2023-05-13T08:56:07;16.80;99.90
74901;DHT22;63461;51.416;6.758;2023-05-13T08:58:33;16.90;99.90
74901;DHT22;63461;51.416;6.758;2023-05-13T09:00:59;17.10;99.90
74901;DHT22;63461;51.416;6.758;2023-05-13T09:03:27;17.20;99.90
74901;DHT22;63461;51.416;6.758;2023-05-13T09:05:53;17.40;99.90
74901;DHT22;63461;51.416;6.758;2023-05-13T09:08:19;17.40;99.90
74901;DHT22;63461;51.416;6.758;2023-05-13T09:10:45;17.40;99.90
74901;DHT22;63461;51.416;6.758;2023-05-13T09:13:12;17.40;99.90
74901;DHT22;63461;51.416;6.758;2023-05-13T09:15:42;17.50;99.90
74901;DHT22;63461;51.416;6.758;2023-05-13T09:18:08;17.60;99.90
74901;DHT22;63461;51.416;6.758;2023-05-13T09:20:35;17.60;99.90
74901;DHT22;63461;51.416;6.758;2023-05-13T09:25:30;17.80;99.90
74901;DHT22;63461;51.416;6.758;2023-05-13T09:27:59;17.80;99.90
74901;DHT22;63461;51.416;6.758;2023-05-13T09:35:31;17.90;99.90
74901;DHT22;63461;51.416;6.758;2023-05-13T09:37:57;17.80;99.90
74901;DHT22;63461;51.416;6.758;2023-05-13T09:40:23;17.90;99.90
74901;DHT22;63461;51.416;6.758;2023-05-13T09:42:49;17.80;99.90
74901;DHT22;63461;51.416;6.758;2023-05-13T09:45:16;18.20;99.90
74901;DHT22;63461;51.416;6.758;2023-05-13T09:47:42;18.10;99.90
74901;DHT22;63461;51.416;6.758;2023-05-13T09:50:10;18.30;99.90
74901;DHT22;63461;51.416;6.758;2023-05-13T09:52:37;18.50;99.90
74901;DHT22;63461;51.416;6.758;2023-05-13T09:55:07;18.20;99.90
74901;DHT22;63461;51.416;6.758;2023-05-13T09:57:33;18.20;99.90
74901;DHT22;63461;51.416;6.758;2023-05-13T10:00:01;18.20;99.90
74901;DHT22;63461;51.416;6.758;2023-05-13T10:02:37;18.20;99.90
74901;DHT22;63461;51.416;6.758;2023-05-13T10:05:04;18.20;99.90
74901;DHT22;63461;51.416;6.758;2023-05-13T10:07:33;18.20;99.90
74901;DHT22;63461;51.416;6.758;2023-05-13T10:10:01;18.60;99.90
74901;DHT22;63461;51.416;6.758;2023-05-13T10:12:30;18.70;99.90
74901;DHT22;63461;51.416;6.758;2023-05-13T10:14:57;18.60;99.90
74901;DHT22;63461;51.416;6.758;2023-05-13T10:17:24;18.60;99.90
74901;DHT22;63461;51.416;6.758;2023-05-13T10:19:51;18.80;99.90
74901;DHT22;63461;51.416;6.758;2023-05-13T10:22:27;18.80;99.90
74901;DHT22;63461;51.416;6.758;2023-05-13T10:25:01;18.70;99.90
74901;DHT22;63461;51.416;6.758;2023-05-13T10:27:29;18.90;99.90
74901;DHT22;63461;51.416;6.758;2023-05-13T10:29:57;18.90;99.90
74901;DHT22;63461;51.416;6.758;2023-05-13T10:32:24;19.00;99.90
74901;DHT22;63461;51.416;6.758;2023-05-13T10:34:55;19.00;99.90
74901;DHT22;63461;51.416;6.758;2023-05-13T10:37:54;19.20;99.70
74901;DHT22;63461;51.416;6.758;2023-05-13T10:43:28;19.10;99.10
74901;DHT22;63461;51.416;6.758;2023-05-13T10:46:11;19.00;99.90
74901;DHT22;63461;51.416;6.758;2023-05-13T10:48:45;19.20;99.90
74901;DHT22;63461;51.416;6.758;2023-05-13T10:51:13;19.10;99.30
74901;DHT22;63461;51.416;6.758;2023-05-13T10:53:49;19.20;98.00
74901;DHT22;63461;51.416;6.758;2023-05-13T10:56:18;19.20;97.80
74901;DHT22;63461;51.416;6.758;2023-05-13T10:58:56;19.20;99.10
74901;DHT22;63461;51.416;6.758;2023-05-13T11:01:33;19.20;98.10
74901;DHT22;63461;51.416;6.758;2023-05-13T11:04:01;19.50;97.30
74901;DHT22;63461;51.416;6.758;2023-05-13T11:06:38;19.50;97.30
74901;DHT22;63461;51.416;6.758;2023-05-13T11:09:05;19.40;96.10
74901;DHT22;63461;51.416;6.758;2023-05-13T11:11:33;19.30;97.70
74901;DHT22;63461;51.416;6.758;2023-05-13T11:14:06;19.60;96.90
74901;DHT22;63461;51.416;6.758;2023-05-13T11:16:34;19.50;96.90
74901;DHT22;63461;51.416;6.758;2023-05-13T11:19:02;19.50;97.50
74901;DHT22;63461;51.416;6.758;2023-05-13T11:21:34;19.40;97.50
74901;DHT22;63461;51.416;6.758;2023-05-13T11:24:04;19.60;94.90
74901;DHT22;63461;51.416;6.758;2023-05-13T11:26:48;19.90;94.00
74901;DHT22;63461;51.416;6.758;2023-05-13T11:29:14;19.80;93.40
74901;DHT22;63461;51.416;6.758;2023-05-13T11:31:51;19.80;92.40
74901;DHT22;63461;51.416;6.758;2023-05-13T11:34:22;19.70;93.60
74901;DHT22;63461;51.416;6.758;2023-05-13T11:36:56;19.80;92.90
74901;DHT22;63461;51.416;6.758;2023-05-13T11:39:23;20.00;91.70
74901;DHT22;63461;51.416;6.758;2023-05-13T11:41:52;20.20;91.50
74901;DHT22;63461;51.416;6.758;2023-05-13T11:44:23;20.20;90.80
74901;DHT22;63461;51.416;6.758;2023-05-13T11:47:00;20.40;89.50
74901;DHT22;63461;51.416;6.758;2023-05-13T11:49:38;20.30;89.80
74901;DHT22;63461;51.416;6.758;2023-05-13T11:52:09;20.30;85.90
74901;DHT22;63461;51.416;6.758;2023-05-13T11:54:53;20.30;85.40
74901;DHT22;63461;51.416;6.758;2023-05-13T11:57:24;20.40;85.70
74901;DHT22;63461;51.416;6.758;2023-05-13T11:59:58;20.60;90.00
74901;DHT22;63461;51.416;6.758;2023-05-13T12:02:28;20.40;91.10
74901;DHT22;63461;51.416;6.758;2023-05-13T12:04:55;20.50;88.50
74901;DHT22;63461;51.416;6.758;2023-05-13T12:07:24;20.60;88.70
74901;DHT22;63461;51.416;6.758;2023-05-13T12:09:52;20.70;86.80
74901;DHT22;63461;51.416;6.758;2023-05-13T12:12:19;20.70;87.70
74901;DHT22;63461;51.416;6.758;2023-05-13T12:14:46;20.80;86.00
74901;DHT22;63461;51.416;6.758;2023-05-13T12:17:15;20.70;86.10
74901;DHT22;63461;51.416;6.758;2023-05-13T12:22:29;20.90;81.70
74901;DHT22;63461;51.416;6.758;2023-05-13T12:24:55;21.00;82.20
74901;DHT22;63461;51.416;6.758;2023-05-13T12:27:26;20.90;82.00
74901;DHT22;63461;51.416;6.758;2023-05-13T12:29:55;21.00;81.30
74901;DHT22;63461;51.416;6.758;2023-05-13T12:32:23;20.90;82.00
74901;DHT22;63461;51.416;6.758;2023-05-13T12:34:49;20.90;78.20
74901;DHT22;63461;51.416;6.758;2023-05-13T12:37:16;21.00;80.60
74901;DHT22;63461;51.416;6.758;2023-05-13T12:39:43;21.10;83.60
74901;DHT22;63461;51.416;6.758;2023-05-13T12:42:16;21.10;84.90
74901;DHT22;63461;51.416;6.758;2023-05-13T12:44:45;21.10;84.40
74901;DHT22;63461;51.416;6.758;2023-05-13T12:47:12;21.00;84.30
74901;DHT22;63461;51.416;6.758;2023-05-13T12:49:57;21.00;83.20
74901;DHT22;63461;51.416;6.758;2023-05-13T12:52:23;20.90;83.70
74901;DHT22;63461;51.416;6.758;2023-05-13T12:54:49;20.90;83.30
74901;DHT22;63461;51.416;6.758;2023-05-13T12:57:16;20.90;82.20
74901;DHT22;63461;51.416;6.758;2023-05-13T12:59:43;20.90;83.90
74901;DHT22;63461;51.416;6.758;2023-05-13T13:02:11;21.00;82.90
74901;DHT22;63461;51.416;6.758;2023-05-13T13:04:36;21.00;81.20
74901;DHT22;63461;51.416;6.758;2023-05-13T13:07:02;21.00;80.50
74901;DHT22;63461;51.416;6.758;2023-05-13T13:09:29;21.20;80.00
74901;DHT22;63461;51.416;6.758;2023-05-13T13:11:55;21.40;78.80
74901;DHT22;63461;51.416;6.758;2023-05-13T13:14:20;21.40;79.90
74901;DHT22;63461;51.416;6.758;2023-05-13T13:16:48;21.50;79.30
74901;DHT22;63461;51.416;6.758;2023-05-13T13:19:14;21.50;78.10
74901;DHT22;63461;51.416;6.758;2023-05-13T13:21:39;21.40;78.40
74901;DHT22;63461;51.416;6.758;2023-05-13T13:24:06;21.40;78.10
74901;DHT22;63461;51.416;6.758;2023-05-13T13:26:32;21.40;79.00
74901;DHT22;63461;51.416;6.758;2023-05-13T13:28:57;21.50;78.10
74901;DHT22;63461;51.416;6.758;2023-05-13T13:31:23;21.50;78.70
74901;DHT22;63461;51.416;6.758;2023-05-13T13:33:49;21.50;78.60
74901;DHT22;63461;51.416;6.758;2023-05-13T13:36:14;21.40;84.30
74901;DHT22;63461;51.416;6.758;2023-05-13T13:38:41;21.50;81.40
74901;DHT22;63461;51.416;6.758;2023-05-13T13:41:07;21.40;80.70
74901;DHT22;63461;51.416;6.758;2023-05-13T13:43:32;21.60;78.00
74901;DHT22;63461;51.416;6.758;2023-05-13T13:45:58;21.60;79.90
74901;DHT22;63461;51.416;6.758;2023-05-13T13:48:24;21.80;78.30
74901;DHT22;63461;51.416;6.758;2023-05-13T13:50:50;21.70;77.60
74901;DHT22;63461;51.416;6.758;2023-05-13T13:53:17;21.80;77.10
74901;DHT22;63461;51.416;6.758;2023-05-13T13:55:43;21.70;76.90
74901;DHT22;63461;51.416;6.758;2023-05-13T13:58:08;21.80;76.10
74901;DHT22;63461;51.416;6.758;2023-05-13T14:00:34;21.80;77.00
74901;DHT22;63461;51.416;6.758;2023-05-13T14:03:00;21.50;77.90
74901;DHT22;63461;51.416;6.758;2023-05-13T14:05:27;21.40;78.30
74901;DHT22;63461;51.416;6.758;2023-05-13T14:07:53;21.50;77.80
74901;DHT22;63461;51.416;6.758;2023-05-13T14:10:20;21.50;76.30
74901;DHT22;63461;51.416;6.758;2023-05-13T14:12:46;21.50;74.90
74901;DHT22;63461;51.416;6.758;2023-05-13T14:15:12;21.50;76.00
74901;DHT22;63461;51.416;6.758;2023-05-13T14:17:38;21.70;74.00
74901;DHT22;63461;51.416;6.758;2023-05-13T14:20:04;21.80;74.20
74901;DHT22;63461;51.416;6.758;2023-05-13T14:22:30;21.80;76.30
74901;DHT22;63461;51.416;6.758;2023-05-13T14:24:57;21.70;73.80
74901;DHT22;63461;51.416;6.758;2023-05-13T14:27:23;21.60;73.50
74901;DHT22;63461;51.416;6.758;2023-05-13T14:29:49;21.50;74.00
74901;DHT22;63461;51.416;6.758;2023-05-13T14:32:15;21.40;75.90
74901;DHT22;63461;51.416;6.758;2023-05-13T14:34:41;21.30;78.70
74901;DHT22;63461;51.416;6.758;2023-05-13T14:37:07;21.30;80.30
74901;DHT22;63461;51.416;6.758;2023-05-13T14:39:33;21.20;80.60
74901;DHT22;63461;51.416;6.758;2023-05-13T14:41:59;21.10;77.90
74901;DHT22;63461;51.416;6.758;2023-05-13T14:44:25;21.10;78.50
74901;DHT22;63461;51.416;6.758;2023-05-13T14:46:51;21.10;78.00
74901;DHT22;63461;51.416;6.758;2023-05-13T14:49:17;21.20;76.90
74901;DHT22;63461;51.416;6.758;2023-05-13T14:51:42;21.20;76.40
74901;DHT22;63461;51.416;6.758;2023-05-13T14:54:08;21.40;76.90
74901;DHT22;63461;51.416;6.758;2023-05-13T14:56:34;21.40;76.10
74901;DHT22;63461;51.416;6.758;2023-05-13T14:59:01;21.50;78.00
74901;DHT22;63461;51.416;6.758;2023-05-13T15:01:27;21.30;83.10
74901;DHT22;63461;51.416;6.758;2023-05-13T15:03:53;21.00;88.60
74901;DHT22;63461;51.416;6.758;2023-05-13T15:06:19;20.60;95.90
74901;DHT22;63461;51.416;6.758;2023-05-13T15:08:44;20.30;95.50
74901;DHT22;63461;51.416;6.758;2023-05-13T15:11:10;20.20;95.50
74901;DHT22;63461;51.416;6.758;2023-05-13T15:13:36;20.20;94.80
74901;DHT22;63461;51.416;6.758;2023-05-13T15:16:04;20.10;98.10
74901;DHT22;63461;51.416;6.758;2023-05-13T15:18:31;20.10;99.90
74901;DHT22;63461;51.416;6.758;2023-05-13T15:20:57;20.00;99.90
74901;DHT22;63461;51.416;6.758;2023-05-13T15:23:22;20.10;99.90
74901;DHT22;63461;51.416;6.758;2023-05-13T15:25:49;20.10;99.90
74901;DHT22;63461;51.416;6.758;2023-05-13T15:28:15;20.00;99.90
74901;DHT22;63461;51.416;6.758;2023-05-13T15:30:40;19.90;99.90
74901;DHT22;63461;51.416;6.758;2023-05-13T15:33:07;20.00;99.90
74901;DHT22;63461;51.416;6.758;2023-05-13T15:35:33;20.00;99.90
74901;DHT22;63461;51.416;6.758;2023-05-13T15:37:59;20.00;99.90
74901;DHT22;63461;51.416;6.758;2023-05-13T15:40:25;20.00;99.90
74901;DHT22;63461;51.416;6.758;2023-05-13T15:42:51;19.90;99.90
74901;DHT22;63461;51.416;6.758;2023-05-13T15:45:17;19.90;99.90
74901;DHT22;63461;51.416;6.758;2023-05-13T15:47:43;19.80;99.90
74901;DHT22;63461;51.416;6.758;2023-05-13T15:50:09;19.70;99.90
74901;DHT22;63461;51.416;6.758;2023-05-13T15:52:35;19.70;99.90